Tiempo atmosférico en la estación meteorológica de Puerto De Leitariegos, Asturias (1550 m.)



Fecha
DESCASC
Temp. máxima en grados centígrados (hora)
DESCASC
Temp. mínima en grados centígrados (hora)
DESCASC
Temp. media en grados centígrados
DESCASC
Racha de viento máxima en m/sg (hora)
DESCASC
Velocidad máxima media en intervalos de 10 minutos(hora)
DESCASC
Precipitaciones diarias en mm
DESCASC
Precipitaciones de 00:00 a 06:00 en mm
DESCASC
Precipitaciones de 06:00 a 12:00 en mm
DESCASC
Precipitaciones de 12:00 a 18:00 en mm
DESCASC
Precipitaciones de 18:00 a 24:00 en mm
DESCASC
13-10-2019 12.4 (00:00) 8.2 (09:10) 10.3 16.39 (01:30) 7.22 (23:30) 3.4 0 1.2 2.2 0
12-10-2019 18.4 (16:50) 10.5 (07:20) 14.4 24.44 (19:40) 11.11 (18:20) 0 0 0 0 0
11-10-2019 18.3 (16:30) 8 (01:50) 13.1 20.83 (15:50) 9.72 (16:10) 0 0 0 0 0
10-10-2019 18.1 (15:10) 3.3 (00:00) 10.7 5.56 (22:00) 4.17 (08:30) 0 0 0 0 0
09-10-2019 10.1 (15:20) 1.6 (00:00) 5.9 10 (08:00) 6.67 (08:00) 0 0 0 0 0
08-10-2019 16.6 (12:50) 7.5 (00:00) 12.1 7.78 (13:50) 5 (22:00) 0 0 0 0 0
07-10-2019 19.7 (15:30) 9.2 (00:00) 14.5 6.67 (13:30) 4.72 (18:30) 0 0 0 0 0
06-10-2019 15 (16:50) 7.5 (00:00) 11.3 7.5 (13:10) 5.28 (01:30) 0 0 0 0 0
05-10-2019 18.8 (15:00) 6.9 (00:00) 12.8 8.33 (17:40) 5.83 (18:10) 0 0 0 0 0
04-10-2019 16.3 (14:00) 8.6 (00:00) 12.4 7.5 (15:10) 5.28 (15:10) 0 0 0 0 0
03-10-2019 18 (16:00) 6 (00:00) 12 10.28 (16:50) 6.11 (16:40) 0 0 0 0 0
02-10-2019 11.9 (16:20) 5.5 (00:00) 8.7 15 (03:00) 10.28 (05:00) 0 0 0 0 0
01-10-2019 14.7 (15:40) 6.1 (00:00) 10.4 12.78 (13:40) 5.83 (09:00) 0 0 0 0 0
30-09-2019 18.8 (16:10) 9.4 (00:00) 14.1 10.83 (16:50) 5.83 (00:10) 0 0 0 0 0
29-09-2019 17 (11:30) 8 (00:00) 12.5 13.33 (12:30) 5.56 (12:30) 0 0 0 0 0
28-09-2019 18.9 (16:10) 4.4 (00:00) 11.6 10.28 (22:30) 5.83 (22:40) 0 0 0 0 0
27-09-2019 13.1 (13:30) 5.4 (00:00) 9.3 12.5 (13:20) 5 (15:40) 0 0 0 0 0
26-09-2019 18.8 (15:40) 5.6 (00:00) 12.2 9.44 (21:30) 5 (16:20) 0 0 0 0 0
25-09-2019 13.7 (17:30) 5.8 (00:00) 9.8 9.17 (00:10) 5 (00:10) 0 0 0 0 0
24-09-2019 13.5 (14:00) 7 (00:00) 10.3 16.39 (01:00) 8.06 (00:50) 4.4 1.8 2.6 0 0
23-09-2019 11.8 (14:00) 5.2 (00:00) 8.5 15.28 (21:50) 8.06 (21:50) 0.4 0 0 0 0.4
22-09-2019 11.4 (16:20) 5.4 (00:00) 8.4 14.17 (01:40) 7.22 (00:20) 0 0 0 0 0
21-09-2019 12.8 (16:10) 7.1 (00:00) 10 14.17 (13:40) 8.06 (13:40) 12.8 0 0 1.2 11.6
20-09-2019 20.3 (14:50) 10.9 (00:00) 15.6 11.94 (15:30) 6.67 (17:10) 2.2 0 0 0 2.2
19-09-2019 19.1 (14:50) 10.6 (00:00) 14.9 6.67 (15:00) 4.72 (14:20) 0 0 0 0 0
18-09-2019 18.8 (14:40) 9.2 (00:00) 14 11.39 (02:50) 5.83 (02:50) 0 0 0 0 0
17-09-2019 19.5 (12:50) 9 (00:00) 14.3 8.33 (19:30) 5.28 (19:30) 18.2 0 0 12.6 5.6

Gráficas

Temp. máximas Temp. mínimas Temp. medias Precipitaciones Rachas de viento máximas Velocidades máximas media en intervalos de 10 minutos

Datos horarios

Fecha y hora oficial Temperatura (ºC) Velocidad del viento (km/h) Dirección del viento Racha (km/h) Dirección de racha Precipitación (mm) Presión (hPa) Tendencia (hPa) Humedad (%)
2019-10-16 23:00:00 8.1 16 Sudeste 48 Sudeste 0.6 846.1 0 92
2019-10-16 22:00:00 8.2 20 Sudeste 44 Sudeste 0.8 845.9 -0.1 91
2019-10-16 21:00:00 8 19 Sudeste 54 Sudeste 0.2 845.7 -0.3 92
2019-10-16 20:00:00 8.2 21 Sudeste 39 Sudeste 1 846.1 0.2 90
2019-10-16 19:00:00 8 23 Sudeste 41 Sudeste 0.8 846 -0.2 92
2019-10-16 18:00:00 8.1 16 Sudeste 41 Sur 2 846 -0.7 93
2019-10-16 17:00:00 8 21 Sudeste 37 Sudeste 2.4 845.9 -1.1 94
2019-10-16 16:00:00 7.6 19 Sudeste 35 Sudeste 0 846.2 -0.8 94
2019-10-16 15:00:00 7.5 17 Sudeste 26 Sudeste 0 846.7 -0.5 93
2019-10-16 14:00:00 7.2 17 Sudeste 39 Sudeste 0 847 0.7 93
2019-10-16 13:00:00 6.9 20 Sudeste 40 Sudeste 0.4 847 0.6 93
2019-10-16 12:00:00 6.6 23 Sudeste 69 Sudeste 0.2 847.2 1.5 94
2019-10-16 11:00:00 6.2 32 Sudeste 55 Sudeste 0 846.3 -0.2 95
2019-10-16 10:00:00 6 25 Sudeste 67 Sur 0 846.4 0 94
2019-10-16 09:00:00 6 33 Sudeste 58 Sudeste 0 845.7 -0.8 91
2019-10-16 08:00:00 6.1 23 Sudeste 66 Sudeste 0.4 846.5 -0.3 91
2019-10-16 07:00:00 6.2 32 Sudeste 67 Sudeste 0 846.4 -0.8 90
2019-10-16 06:00:00 5.8 25 Sudeste 53 Sudeste 0 846.5 -0.9 93
2019-10-16 05:00:00 5.6 19 Sudeste 36 Sur 0 846.8 -0.9 94
2019-10-16 04:00:00 5.6 18 Sudeste 38 Sudeste 0 847.2 -0.7 94
2019-10-16 03:00:00 5.6 23 Sudeste 41 Sudeste 0 847.4 -0.3 94
2019-10-16 02:00:00 5.6 18 Sudeste 34 Sudeste 0 847.7 0 93
2019-10-16 01:00:00 5.5 19 Sudeste 68 Sudeste 0 847.9 0.6 94
2019-10-16 00:00:00 5.7 30 Sudeste 66 Sur 0 847.7 0 91
2019-10-15 23:00:00 5.5 26 Sudeste 66 Sudeste 0 847.7 0.1 90
2019-10-15 22:00:00 5.1 30 Sudeste 66 Sudeste 0 847.3 -0.3 91
2019-10-15 21:00:00 4.7 27 Sudeste 63 Sudeste 0.2 847.7 0.2 89
2019-10-15 20:00:00 4.8 23 Sudeste 54 Sudeste 0 847.6 -0.3 86
2019-10-15 19:00:00 4.7 20 Sudeste 46 Sur 0 847.6 -0.4 86
2019-10-15 18:00:00 5.2 23 Sudeste 57 Sudeste 0 847.5 -0.7 90
2019-10-15 17:00:00 5 17 Sudeste 35 Sudeste 0 847.9 -0.8 92
2019-10-15 16:00:00 5.1 21 Sudeste 54 Sudeste 0 848 -0.5 91
2019-10-15 15:00:00 4.9 19 Sudeste 30 Sudeste 0 848.2 -0.5 88
2019-10-15 14:00:00 5.3 7 Este 30 Norte 0 848.7 0 83
2019-10-15 13:00:00 4.7 10 Sudeste 28 Sudeste 0 848.5 0.2 86
2019-10-15 12:00:00 4.3 11 Sudeste 23 Sudeste 0 848.7 0.8 86
2019-10-15 11:00:00 4.9 6 Noroeste 29 Noroeste 0 848.7 0.9 78
2019-10-15 10:00:00 3.4 11 Noroeste 29 Noroeste 0 848.3 0.9 82
2019-10-15 09:00:00 2.7 12 Noroeste 27 Noroeste 0 847.9 0.8 83
2019-10-15 08:00:00 2 11 Noroeste 35 Noroeste 0 847.8 0.9 83
2019-10-15 07:00:00 2.6 15 Noroeste 36 Noroeste 0 847.4 0.4 85
2019-10-15 06:00:00 2.2 13 Noroeste 33 Oeste 0 847.1 0.4 86
2019-10-15 05:00:00 1.9 17 Noroeste 33 Oeste 0 846.9 0.6 84
2019-10-15 04:00:00 2 10 Noroeste 24 Noroeste 0 847 0.9 90
2019-10-15 03:00:00 2 13 Noroeste 32 Noroeste 0 846.7 0.8 94
2019-10-15 02:00:00 2 16 Noroeste 40 Noroeste 0 846.3 1 92
2019-10-15 01:00:00 1.8 22 Noroeste 34 Noroeste 0 846.1 1.7 92
2019-10-15 00:00:00 1.5 16 Noroeste 35 Noroeste 0 845.9 1.8 94
2019-10-14 23:00:00 1.6 19 Noroeste 35 Noroeste 0 845.3 1.8 92
2019-10-14 22:00:00 1.1 11 Noroeste 32 Noroeste 0.8 844.4 1.2 92
2019-10-14 21:00:00 1.5 13 Noroeste 32 Noroeste 0.2 844.1 2.2 91
2019-10-14 20:00:00 1.7 15 Norte 38 Noroeste 0 843.5 2.1 89
2019-10-14 19:00:00 1.9 15 Noroeste 37 Noroeste 1.2 843.2 1.9 88
2019-10-14 18:00:00 3.2 18 Noroeste 37 Noroeste 0.4 841.9 1.4 88
2019-10-14 17:00:00 3.7 18 Noroeste 41 Noroeste 0 841.4 1 84
2019-10-14 16:00:00 2.4 21 Noroeste 46 Noroeste 2.2 841.3 0.8 87
2019-10-14 15:00:00 5 9 Sudeste 41 Sur 0 840.5 0.3 86
2019-10-14 14:00:00 4.6 18 Sudeste 45 Sudeste 1.6 840.4 0.5 87
2019-10-14 13:00:00 4.6 15 Sudeste 51 Sudeste 1.8 840.5 1.4 89
2019-10-14 12:00:00 4.5 18 Sudeste 35 Sudeste 1 840.2 1.5 90
2019-10-14 11:00:00 4.5 10 Sudeste 33 Sudeste 0 839.9 0.8 88
2019-10-14 10:00:00 4.2 19 Sudeste 37 Sur 0 839.1 -0.2 87
2019-10-14 09:00:00 3.8 16 Sudeste 35 Sudeste 0.2 838.7 -1 92
2019-10-14 08:00:00 4.4 17 Sudeste 41 Sudeste 0.2 839.1 -0.8 88
2019-10-14 07:00:00 5.1 18 Sudeste 45 Sudeste 1 839.3 -1.1 88
2019-10-14 06:00:00 5.1 15 Noroeste 32 Noroeste 0.2 839.7 -0.4 93
2019-10-14 05:00:00 5.8 12 Noroeste 29 Noroeste 0.2 839.9 -1.1 91
2019-10-14 04:00:00 9 16 Sudoeste 46 Sudeste 0.4 840.4 -1.5 84
2019-10-14 03:00:00 9.7 23 Sudeste 46 Sudeste 0.2 840.1 -2.3 76
2019-10-14 02:00:00 9.4 16 Sudeste 42 Sudeste 0 841 -1.4 83
2019-10-14 01:00:00 10 23 Sudeste 42 Sur 0.2 841.9 -0.6 78
2019-10-14 00:00:00 10.2 17 Sudeste 46 Sudeste 0 842.4 -0.5 75
2019-10-13 23:00:00 10.9 24 Sudeste 53 Sur 0 842.4 -0.4 72
2019-10-13 22:00:00 10.7 19 Sudeste 39 Sudeste 0 842.5 -0.8 76
2019-10-13 21:00:00 10.8 18 Sudeste 38 Sudeste 0 842.9 -0.4 81
2019-10-13 20:00:00 11 17 Sudeste 41 Sudeste 0 842.8 -0.8 81
2019-10-13 19:00:00 11.2 12 Sudeste 48 Sudeste 0 843.3 -0.7 82
2019-10-13 18:00:00 10.8 17 Sudeste 33 Sudeste 0 843.3 -0.9 90
2019-10-13 17:00:00 10.6 15 Sudeste 47 Sudeste 0 843.6 -1 91
2019-10-13 16:00:00 10.3 19 Sudeste 34 Sudeste 0.4 844 -0.6 92
2019-10-13 15:00:00 10.6 18 Sudeste 37 Sudeste 0.8 844.2 -0.3 92
2019-10-13 14:00:00 10.5 17 Sudeste 34 Sudeste 0.4 844.6 0.7 92
2019-10-13 13:00:00 10.1 13 Sudeste 36 Sudeste 0.6 844.6 1.3 92
2019-10-13 12:00:00 9.5 13 Sudeste 31 Sudeste 0.6 844.5 1.5 93
2019-10-13 11:00:00 9.2 19 Sudeste 39 Sudeste 0.4 843.9 1 91
2019-10-13 10:00:00 8.3 19 Sudeste -- -- 0 843.3 0.8 90
2019-10-13 09:00:00 8.3 -- -- -- -- 0.2 843 0.8 88
2019-10-13 08:00:00 9 21 Sudeste 49 Sudeste 0 842.9 0.7 80
2019-10-13 07:00:00 8.6 21 Sudeste 43 Sudeste 0 842.5 0.1 81
2019-10-13 06:00:00 8.7 18 Sudeste 37 Sudeste 0 842.2 -0.6 77
2019-10-13 05:00:00 9.3 18 Sudeste 45 Sudeste 0 842.2 -1.1 74
2019-10-13 04:00:00 9.4 10 Sudeste 30 Sudeste 0 842.4 -1.1 73
2019-10-13 03:00:00 9.6 19 Sudeste 40 Sudeste 0 842.8 -1.3 82
2019-10-13 02:00:00 10.1 23 Sudeste 59 Sudeste 0 843.3 -0.8 83
2019-10-13 01:00:00 11.1 24 Sudeste 56 Sudoeste 0 843.5 -0.8 81
2019-10-13 00:00:00 12.4 19 Sur 48 Sur 0 844.1 -0.3 77
2019-10-12 23:00:00 13.3 24 Sudeste 56 Sudeste 0 844.1 0.2 73
2019-10-12 22:00:00 14.6 20 Sudeste 63 Sudeste 0 844.3 0.3 66
2019-10-12 21:00:00 15.2 15 Sudeste 54 Sudeste 0 844.4 0.1 59
2019-10-12 20:00:00 15.9 31 Sudeste 88 Sudeste 0 843.9 -0.5 54
2019-10-12 19:00:00 16.2 30 Sudeste 84 Sudeste 0 844 -0.5 52
2019-10-12 18:00:00 16.6 36 Sudeste 86 Sudeste 0 844.3 -0.7 48
2019-10-12 17:00:00 17.5 31 Sudeste 85 Este 0 844.4 -1.5 46
2019-10-12 16:00:00 18 21 Sudeste 62 Sudeste 0 844.5 -1.9 45
2019-10-12 15:00:00 17 35 Sudeste 65 Sudeste 0 845 -1.5 50
2019-10-12 14:00:00 17.1 28 Sudeste 62 Sudeste 0 845.9 -0.4 50
2019-10-12 13:00:00 16.3 24 Sudeste 77 Sudeste 0 846.4 0.4 52
2019-10-12 12:00:00 15.9 28 Sudeste 62 Sudeste 0 846.5 0.9 51
2019-10-12 11:00:00 14.9 23 Sudeste 60 Sudeste 0 846.3 0.2 53
2019-10-12 10:00:00 13.4 24 Sudeste 74 Sudeste 0 846 -0.2 55
2019-10-12 09:00:00 12 27 Sudeste 61 Este 0 845.6 -0.7 58
2019-10-12 08:00:00 11 17 Sudeste 32 Sudeste 0 846.1 -0.5 70
2019-10-12 07:00:00 11.4 14 Sudeste 40 Sudeste 0 846.2 -0.8 74
2019-10-12 06:00:00 12.5 19 Sudeste 55 Sudeste 0 846.3 -1.4 69
2019-10-12 05:00:00 12.7 19 Sudeste 59 Sur 0 846.6 -1.5 69
2019-10-12 04:00:00 13.5 29 Sudeste 57 Sudeste 0 847 -1.7 65
2019-10-12 03:00:00 12.6 14 Este 41 Sudeste 0 847.7 -1.3 72
2019-10-12 02:00:00 13.1 14 Sudeste 31 Sur 0 848.1 -1 71
2019-10-12 01:00:00 12.5 10 Sudeste 18 Este 0 848.7 -0.2 73
2019-10-12 00:00:00 12.8 6 Sudeste 16 Este 0 849 0 71
2019-10-11 23:00:00 13.1 6 Sudeste 12 Sudeste 0 849.1 -0.1 68
2019-10-11 22:00:00 13.9 6 Sudeste 23 Sudeste 0 848.9 -0.4 65
2019-10-11 21:00:00 14 7 Sudeste 28 Sudeste 0 849 -0.4 65
2019-10-11 20:00:00 15.5 5 Sur 34 Sudeste 0 849.2 -0.4 58
2019-10-11 19:00:00 16.8 13 Sudeste 53 Sudeste 0 849.3 -0.4 54
2019-10-11 18:00:00 17.4 24 Sudeste 67 Sudeste 0 849.4 -0.9 49
2019-10-11 17:00:00 18 32 Sudeste 67 Sudeste 0 849.6 -1.3 49
2019-10-11 16:00:00 18.1 33 Sudeste 75 Sur 0 849.7 -1.7 48
2019-10-11 15:00:00 17.9 27 Sudeste 65 Sudeste 0 850.3 -1.3 48
2019-10-11 14:00:00 17.7 24 Sudeste 49 Sudeste 0 850.9 -0.9 50
2019-10-11 13:00:00 17.3 18 Sudeste 49 Sur 0 851.4 -0.3 36
2019-10-11 12:00:00 16.4 20 Sudeste 40 Sudeste 0 851.6 0.4 41
2019-10-11 11:00:00 15.1 17 Este 27 Sudeste 0 851.8 0.9 47
2019-10-11 10:00:00 13.3 11 Este 23 Nordeste 0 851.7 0.7 57
2019-10-11 09:00:00 9.8 12 Sudeste 23 Sudeste 0 851.2 0.3 66
2019-10-11 08:00:00 10.1 14 Sudeste 30 Este 0 850.9 -0.4 64
2019-10-11 07:00:00 10.9 17 Sudeste 28 Sudeste 0 851 -0.6 61
2019-10-11 06:00:00 11.4 16 Este 29 Sudeste 0 850.9 -1 59
2019-10-11 05:00:00 9.2 14 Sudeste 20 Sudeste 0 851.3 -0.8 64
2019-10-11 04:00:00 8.4 8 Sudeste 12 Sudeste 0 851.6 -0.8 66
2019-10-11 03:00:00 8.2 8 Sudeste 13 Sudeste 0 851.9 -0.7 67
2019-10-11 02:00:00 8.4 7 Sudeste 17 Sudeste 0 852.1 -0.5 67
2019-10-11 01:00:00 8.7 9 Sudeste 19 Sur 0 852.4 0 66
2019-10-11 00:00:00 9.4 7 Sudeste 13 Sur 0 852.6 0.4 62
2019-10-10 23:00:00 9.8 8 Sudeste 18 Sur 0 852.6 0.7 63
2019-10-10 22:00:00 10.7 12 Sur 20 Sur 0 852.4 0.4 62
2019-10-10 21:00:00 11.7 8 Sudeste 17 Sur 0 852.2 0.1 56
2019-10-10 20:00:00 13 7 Sur 18 Sur 0 851.9 -0.4 52
2019-10-10 19:00:00 11.2 10 Noroeste 16 Noroeste 0 852 -0.6 75
2019-10-10 18:00:00 14 9 Noroeste 14 Noroeste 0 852.1 -0.8 63
2019-10-10 17:00:00 15.5 12 Noroeste 18 Noroeste 0 852.3 -1.1 60
2019-10-10 16:00:00 16.9 4 Norte 18 Noroeste 0 852.6 -0.9 52
2019-10-10 15:00:00 18 9 Sudeste 19 Sudeste 0 852.9 -0.7 39
2019-10-10 14:00:00 17.1 11 Sudeste 18 Sudeste 0 853.4 -0.1 38
2019-10-10 13:00:00 15.6 12 Sudeste 18 Sudeste 0 853.5 0.2 42
2019-10-10 12:00:00 13.7 10 Sudeste 15 Sudeste 0 853.6 1 48
2019-10-10 11:00:00 11.6 5 Norte 12 Norte 0 853.5 0.9 52
2019-10-10 10:00:00 8.9 -- -- -- -- 0 853.3 0.7 57
2019-10-10 09:00:00 6.8 11 Noroeste 17 Noroeste 0 852.6 -0.1 54
2019-10-10 08:00:00 6.9 7 Noroeste 10 Noroeste 0 852.6 -0.1 62
2019-10-10 07:00:00 6.4 6 Noroeste 16 Noroeste 0 852.6 -0.3 56
2019-10-10 06:00:00 5.5 8 Noroeste 13 Noroeste 0 852.7 -0.4 51
2019-10-10 05:00:00 5.4 10 Noroeste 14 Noroeste 0 852.7 -0.5 48
2019-10-10 04:00:00 3.9 2 Norte 5 Noroeste 0 852.9 -0.6 57
2019-10-10 03:00:00 4.5 4 Noroeste 14 Noroeste 0 853.1 -0.4 67
2019-10-10 02:00:00 3.8 0 Calma 14 Noroeste 0 853.2 -0.1 71
2019-10-10 01:00:00 3.5 9 Noroeste 15 Noroeste 0 853.5 0.1 86
2019-10-10 00:00:00 3.7 10 Noroeste 15 Noroeste 0 853.5 0.2 91
2019-10-09 23:00:00 4.1 0 Calma 18 Noroeste 0 853.3 0.4 81
2019-10-09 22:00:00 4.5 12 Noroeste 16 Noroeste 0 853.4 0.5 89
2019-10-09 21:00:00 4.9 10 Noroeste 25 Noroeste 0 853.3 0.4 87
2019-10-09 20:00:00 6 15 Noroeste 22 Oeste 0 852.9 -0.1 83
2019-10-09 19:00:00 7.1 14 Noroeste 23 Noroeste 0 852.9 -0.1 76
2019-10-09 18:00:00 8.2 16 Noroeste 26 Noroeste 0 852.9 0 70
2019-10-09 17:00:00 9.8 15 Noroeste 27 Noroeste 0 853 0 64
2019-10-09 16:00:00 9.9 15 Noroeste 24 Noroeste 0 853 -0.3 69
2019-10-09 15:00:00 9.7 12 Noroeste 30 Noroeste 0 852.9 -0.4 66
2019-10-09 14:00:00 8.6 17 Noroeste 27 Noroeste 0 853 -0.1 77
2019-10-09 13:00:00 7.8 8 Noroeste 20 Noroeste 0 853.3 0.7 80
2019-10-09 12:00:00 6.7 11 Noroeste 30 Noroeste 0 853.3 1.2 85
2019-10-09 11:00:00 5.6 19 Noroeste 29 Noroeste 0 853.1 1.2 87
2019-10-09 10:00:00 4.2 22 Noroeste 34 Noroeste 0 852.6 0.8 93
2019-10-09 09:00:00 3.4 13 Noroeste 33 Noroeste 0 852.1 0.6 95
2019-10-09 08:00:00 4 24 Noroeste 36 Noroeste 0 851.9 0.6 94
2019-10-09 07:00:00 2.5 13 Noroeste 17 Noroeste 0 851.8 0.2 95
2019-10-09 06:00:00 3.5 15 Noroeste 25 Noroeste 0 851.5 -0.1 96
2019-10-09 05:00:00 4.6 17 Noroeste 29 Noroeste 0 851.3 -0.1 96
2019-10-09 04:00:00 5.9 16 Noroeste 30 Noroeste 0 851.6 0.3 96
2019-10-09 03:00:00 6.3 13 Noroeste 19 Noroeste 0 851.6 -0.2 96
2019-10-09 02:00:00 6.7 8 Noroeste 25 Noroeste 0 851.4 -0.6 96
2019-10-09 01:00:00 6.7 2 Sudeste 19 Noroeste 0 851.3 -0.4 96
2019-10-09 00:00:00 7.6 12 Noroeste 24 Noroeste 0 851.8 0.2 96
2019-10-08 23:00:00 7.8 12 Noroeste 23 Noroeste 0 852 0.6 96
2019-10-08 22:00:00 8.1 18 Noroeste 24 Noroeste 0 851.7 0.1 96
2019-10-08 21:00:00 8.3 13 Noroeste 24 Noroeste 0 851.6 0.3 95
2019-10-08 20:00:00 11.3 13 Norte 27 Noroeste 0 851.4 -0.2 94
2019-10-08 19:00:00 10.4 13 Noroeste 24 Noroeste 0 851.6 -0.3 95
2019-10-08 18:00:00 12 14 Noroeste 19 Noroeste 0 851.3 -0.7 95
2019-10-08 17:00:00 14.3 12 Noroeste 21 Noroeste 0 851.6 -0.6 90
2019-10-08 16:00:00 15.7 12 Noroeste 24 Noroeste 0 851.9 -0.8 85
2019-10-08 15:00:00 15.7 13 Noroeste 26 Norte 0 852 -0.8 81
2019-10-08 14:00:00 16 13 Norte 28 Norte 0 852.2 -0.4 77
2019-10-08 13:00:00 16.5 8 Noroeste 23 Noroeste 0 852.7 0.3 74
2019-10-08 12:00:00 15.5 14 Noroeste 26 Noroeste 0 852.8 0.4 74
2019-10-08 11:00:00 14.8 11 Noroeste 19 Noroeste 0 852.6 0.4 72
2019-10-08 10:00:00 13.6 11 Noroeste 17 Noroeste 0 852.4 0.1 72
2019-10-08 09:00:00 11 0 Calma 8 Sur 0 852.4 -0.1 77
2019-10-08 08:00:00 11.6 4 Sudeste 13 Sudeste 0 852.2 -0.5 74
2019-10-08 07:00:00 11.7 7 Sudeste 11 Sur 0 852.3 -0.8 74
2019-10-08 06:00:00 12.2 5 Sudeste 18 Sudoeste 0 852.5 -1 71
2019-10-08 05:00:00 12.6 4 Sudeste 11 Sudeste 0 852.7 -0.7 66
2019-10-08 04:00:00 12.1 6 Sudeste 9 Sur 0 853.1 -0.8 67
2019-10-08 03:00:00 12 0 Calma 10 Sudeste 0 853.5 -0.7 67
2019-10-08 02:00:00 12.6 5 Sudeste 9 Sudeste 0 853.4 -1 64
2019-10-08 01:00:00 12.3 2 Sur 6 Sudeste 0 853.9 -0.3 63
2019-10-08 00:00:00 13.3 6 Sur 12 Sudeste 0 854.2 0.1 57
2019-10-07 23:00:00 12.8 3 Sudeste 9 Sur 0 854.4 0.3 58
2019-10-07 22:00:00 13 0 Calma 6 Sudoeste 0 854.2 0.2 60
2019-10-07 21:00:00 12.2 2 Noroeste 12 Noroeste 0 854.1 0 59
2019-10-07 20:00:00 13.2 8 Noroeste 19 Noroeste 0 854.1 -0.1 55
2019-10-07 19:00:00 14.7 13 Oeste 21 Noroeste 0 854 -0.2 48
2019-10-07 18:00:00 16.7 13 Noroeste 22 Noroeste 0 854.1 -0.2 40
2019-10-07 17:00:00 19.1 11 Noroeste 18 Noroeste 0 854.2 -0.5 31
2019-10-07 16:00:00 19.6 12 Noroeste 19 Noroeste 0 854.2 -0.4 38
2019-10-07 15:00:00 19.6 13 Noroeste 24 Noroeste 0 854.3 -0.3 46
2019-10-07 14:00:00 18.7 15 Noroeste 24 Noroeste 0 854.7 0.1 50
2019-10-07 13:00:00 18.5 14 Noroeste 21 Noroeste 0 854.6 0.2 22
2019-10-07 12:00:00 18.1 12 Noroeste 16 Noroeste 0 854.6 0.5 15
2019-10-07 11:00:00 16.5 11 Noroeste 14 Noroeste 0 854.6 0.6 13
2019-10-07 10:00:00 13.8 2 Noroeste 12 Noroeste 0 854.4 0.8 29
2019-10-07 09:00:00 10.4 9 Noroeste 15 Noroeste 0 854.1 0.6 19
2019-10-07 08:00:00 10.3 7 Noroeste 13 Noroeste 0 854 0.6 19
2019-10-07 07:00:00 10.1 8 Noroeste 11 Noroeste 0 853.6 -0.1 20
2019-10-07 06:00:00 9.9 6 Noroeste 12 Noroeste 0 853.5 -0.8 21
2019-10-07 05:00:00 10.4 7 Noroeste 14 Noroeste 0 853.4 -1 21
2019-10-07 04:00:00 10.4 3 Noroeste 16 Noroeste 0 853.7 -1 20
2019-10-07 03:00:00 9.6 9 Noroeste 18 Noroeste 0 854.3 -0.5 24
2019-10-07 02:00:00 9.8 9 Noroeste 14 Noroeste 0 854.4 -0.5 25
2019-10-07 01:00:00 9.4 5 Noroeste 13 Noroeste 0 854.7 -0.1 26
2019-10-07 00:00:00 9.3 10 Noroeste 15 Noroeste 0 854.8 0.3 38
2019-10-06 23:00:00 8 11 Noroeste 16 Noroeste 0 854.9 0.5 63
2019-10-06 22:00:00 9.5 10 Noroeste 14 Noroeste 0 854.8 0.7 95
2019-10-06 21:00:00 9.3 11 Noroeste 15 Oeste 0 854.5 0.6 91
2019-10-06 20:00:00 10.6 10 Noroeste 15 Noroeste 0 854.4 0.5 84
2019-10-06 19:00:00 12 11 Oeste 25 Noroeste 0 854.1 0.1 77
2019-10-06 18:00:00 13.7 13 Oeste 22 Noroeste 0 853.9 -0.3 73
2019-10-06 17:00:00 14.9 13 Noroeste 20 Noroeste 0 853.9 -0.4 71
2019-10-06 16:00:00 14.4 13 Noroeste 24 Noroeste 0 854 -0.1 71
2019-10-06 15:00:00 14.3 14 Noroeste 27 Noroeste 0 854.2 0.1 73
2019-10-06 14:00:00 13.9 16 Noroeste 27 Noroeste 0 854.3 0.3 76
2019-10-06 13:00:00 13 18 Noroeste -- -- 0 854.1 0.3 82
2019-10-06 12:00:00 12.1 3 Noroeste 15 Norte 0 854.1 1 76
2019-10-06 11:00:00 10.9 9 Noroeste 21 Noroeste 0 854 1.2 92
2019-10-06 10:00:00 9.6 17 Noroeste 24 Noroeste 0 853.8 1.3 95
2019-10-06 09:00:00 9.6 6 Noroeste 13 Noroeste 0 853.1 0.7 95
2019-10-06 08:00:00 9 7 Noroeste 21 Noroeste 0 852.8 0.6 95
2019-10-06 07:00:00 9.7 11 Noroeste 21 Norte 0 852.5 -0.1 94
2019-10-06 06:00:00 9.9 17 Norte 25 Norte 0 852.4 -0.5 92
2019-10-06 05:00:00 9.5 11 Noroeste 17 Noroeste 0 852.2 -0.8 93
2019-10-06 04:00:00 9.4 10 Norte 14 Norte 0 852.6 -0.2 89
2019-10-06 03:00:00 9.3 12 Noroeste 24 Noroeste 0 852.9 0.2 90
2019-10-06 02:00:00 7.9 19 Noroeste 26 Noroeste 0 853 0.4 77
2019-10-06 01:00:00 7.5 16 Noroeste 19 Noroeste 0 852.8 0.4 68
2019-10-06 00:00:00 7.6 11 Noroeste 16 Noroeste 0 852.7 1.2 63
2019-10-05 23:00:00 7.9 9 Noroeste 15 Sudeste 0 852.6 1 93
2019-10-05 22:00:00 9.3 14 Noroeste 27 Noroeste 0 852.4 1 94
2019-10-05 21:00:00 9.8 3 Oeste 15 Noroeste 0 851.5 0.6 81
2019-10-05 20:00:00 10.5 14 Noroeste 21 Noroeste 0 851.6 1 89
2019-10-05 19:00:00 11.6 17 Noroeste 28 Noroeste 0 851.4 0.8 85
2019-10-05 18:00:00 13.3 18 Noroeste 30 Noroeste 0 850.9 0.4 77
2019-10-05 17:00:00 15.8 12 Noroeste 23 Noroeste 0 850.6 -0.3 69
2019-10-05 16:00:00 15.8 16 Noroeste 28 Noroeste 0 850.6 -0.2 69
2019-10-05 15:00:00 18.7 5 Norte 15 Noroeste 0 850.5 -0.2 44
2019-10-05 14:00:00 16.3 6 Noroeste 22 Norte 0 850.9 0.3 64
2019-10-05 13:00:00 16.4 12 Oeste 21 Noroeste 0 850.8 0.5 63
2019-10-05 12:00:00 16 7 Sudeste 14 Sudeste 0 850.7 0.8 62
2019-10-05 11:00:00 13.9 8 Sudeste 12 Sudeste 0 850.6 0.9 68
2019-10-05 10:00:00 11.3 7 Sudeste 12 Sudeste 0 850.3 0.7 69
2019-10-05 09:00:00 8.2 8 Sudeste 9 Sudeste 0 849.9 0.2 78
2019-10-05 08:00:00 7.9 6 Sudeste 11 Sur 0 849.7 -0.1 81
2019-10-05 07:00:00 8.6 8 Sudeste 11 Sudeste 0 849.6 -0.7 82
2019-10-05 06:00:00 8.3 7 Sudeste 9 Sur 0 849.7 -0.8 74
2019-10-05 05:00:00 7.6 4 Sur 8 Sudeste 0 849.8 -0.8 77
2019-10-05 04:00:00 7.2 2 Sudeste 6 Sudeste 0 850.3 -0.4 75
2019-10-05 03:00:00 7 0 Calma 6 Sudoeste 0 850.5 -0.4 79
2019-10-05 02:00:00 7.2 0 Calma 6 Sudeste 0 850.6 -0.4 81
2019-10-05 01:00:00 7.9 3 Sudeste 6 Sudeste 0 850.7 -0.3 81
2019-10-05 00:00:00 8.6 0 Calma 9 Sudeste 0 850.9 0.1 85
2019-10-04 23:00:00 9.7 5 Sudeste 9 Sur 0 851 0.2 87
2019-10-04 22:00:00 8.9 0 Calma 8 Norte 0 851 0.5 91
2019-10-04 21:00:00 9.2 6 Noroeste 14 Norte 0 850.8 0.4 95
2019-10-04 20:00:00 10.8 11 Noroeste 18 Noroeste 0 850.8 0.4 95
2019-10-04 19:00:00 11 15 Noroeste 21 Noroeste 0 850.5 -0.3 95
2019-10-04 18:00:00 11.6 16 Noroeste 26 Noroeste 0 850.4 -0.5 93
2019-10-04 17:00:00 12.3 19 Noroeste 25 Noroeste 0 850.4 -0.7 90
2019-10-04 16:00:00 13.8 18 Noroeste 27 Noroeste 0 850.8 -0.7 85
2019-10-04 15:00:00 14.7 17 Noroeste -- -- 0 850.9 -0.9 83
2019-10-04 14:00:00 16.2 -- -- -- -- 0 851.1 -0.5 69
2019-10-04 13:00:00 14.6 4 Sudeste 20 Norte 0 851.5 0 77
2019-10-04 12:00:00 12.4 13 Noroeste 19 Noroeste 0 851.8 0.7 90
2019-10-04 11:00:00 11.9 6 Noroeste 17 Noroeste 0 851.6 0.6 92
2019-10-04 10:00:00 10.9 8 Noroeste 12 Noroeste 0 851.5 0.4 92
2019-10-04 09:00:00 10.4 3 Oeste 11 Noroeste 0 851.1 0 91
2019-10-04 08:00:00 10.9 5 Norte 13 Noroeste 0 851 -0.3 89
2019-10-04 07:00:00 11.1 5 Norte 23 Oeste 0 851.1 -0.4 91
2019-10-04 06:00:00 11.4 7 Noroeste 15 Noroeste 0 851.1 -0.7 85
2019-10-04 05:00:00 11.4 4 Noroeste 12 Noroeste 0 851.3 -0.8 87
2019-10-04 04:00:00 11.6 3 Nordeste 10 Sudeste 0 851.5 -1.1 93
2019-10-04 03:00:00 12.2 3 Este 9 Sudeste 0 851.8 -1.1 93
2019-10-04 02:00:00 12.2 3 Sudeste 12 Noroeste 0 852.1 -0.9 93
2019-10-04 01:00:00 12.2 4 Noroeste 11 Norte 0 852.6 -0.4 93
2019-10-04 00:00:00 12.2 5 Noroeste 10 Noroeste 0 852.9 0 94
2019-10-03 23:00:00 12.4 2 Sudoeste 15 Noroeste 0 853 0.2 91
2019-10-03 22:00:00 12.1 11 Noroeste 17 Noroeste 0 853 0.4 93
2019-10-03 21:00:00 12.6 10 Noroeste 22 Noroeste 0 852.9 0.3 87
2019-10-03 20:00:00 12.5 11 Noroeste 23 Noroeste 0 852.8 0.2 84
2019-10-03 19:00:00 13.2 14 Noroeste 24 Noroeste 0 852.6 0.1 79
2019-10-03 18:00:00 15.4 17 Noroeste 33 Noroeste 0 852.6 0.1 69
2019-10-03 17:00:00 16.5 20 Noroeste 37 Noroeste 0 852.6 -0.2 52
2019-10-03 16:00:00 18 12 Noroeste 18 Noroeste 0 852.5 -0.4 40
2019-10-03 15:00:00 17.2 14 Noroeste 21 Norte 0 852.5 -0.3 35
2019-10-03 14:00:00 16.9 13 Noroeste 23 Noroeste 0 852.8 0.4 34
2019-10-03 13:00:00 15.9 11 Noroeste 19 Noroeste 0 852.9 1.1 40
2019-10-03 12:00:00 15 12 Noroeste 20 Norte 0 852.8 0.9 39
2019-10-03 11:00:00 14.7 8 Noroeste 17 Noroeste 0 852.4 0.8 42
2019-10-03 10:00:00 10.7 3 Norte 6 Noroeste 0 851.8 0.2 65
2019-10-03 09:00:00 6.5 0 Calma 5 Sur 0 851.9 0.2 67
2019-10-03 08:00:00 6 2 Este 13 Sur 0 851.6 0 77
2019-10-03 07:00:00 7.1 6 Sudeste 12 Sudeste 0 851.6 -0.2 80
2019-10-03 06:00:00 7.4 4 Sur 10 Sudeste 0 851.7 -0.4 81
2019-10-03 05:00:00 6.6 6 Sudeste 12 Sudeste 0 851.6 -0.9 86
2019-10-03 04:00:00 7.1 10 Sudeste 14 Sur 0 851.8 -0.8 86
2019-10-03 03:00:00 6.2 10 Sudeste 14 Sudeste 0 852.1 -0.7 91
2019-10-03 02:00:00 6.8 9 Sudeste 14 Sudeste 0 852.5 -0.5 90
2019-10-03 01:00:00 7 10 Sudeste 12 Sudeste 0 852.6 -0.3 90
2019-10-03 00:00:00 6.9 11 Sudeste 13 Sudeste 0 852.8 -0.1 90
2019-10-02 23:00:00 7.1 10 Sudeste 13 Sudeste 0 853 0.2 89
2019-10-02 22:00:00 6.5 4 Norte 10 Norte 0 852.9 0.2 90
2019-10-02 21:00:00 6.8 8 Noroeste 13 Oeste 0 852.9 0.4 89
2019-10-02 20:00:00 7.8 9 Noroeste 18 Noroeste 0 852.8 0.3 86
2019-10-02 19:00:00 9.1 12 Noroeste 19 Noroeste 0 852.7 0.3 83
2019-10-02 18:00:00 11.4 14 Noroeste 21 Noroeste 0 852.5 0.1 74
2019-10-02 17:00:00 11.9 14 Noroeste 26 Noroeste 0 852.5 0 73
2019-10-02 16:00:00 11.5 14 Noroeste 24 Noroeste 0 852.4 -0.4 74
2019-10-02 15:00:00 11 15 Noroeste 31 Noroeste 0 852.4 0.1 75
2019-10-02 14:00:00 9.7 13 Noroeste 24 Noroeste 0 852.5 0.4 79
2019-10-02 13:00:00 8 15 Noroeste 29 Noroeste 0 852.8 1.8 87
2019-10-02 12:00:00 7.1 14 Noroeste 33 Noroeste 0 852.3 2.1 89
2019-10-02 11:00:00 5.9 19 Noroeste 37 Noroeste 0 852.1 2.3 95
2019-10-02 10:00:00 6 25 Noroeste 39 Noroeste 0 851 1.5 95
2019-10-02 09:00:00 5.8 22 Noroeste 42 Noroeste 0 850.2 0.5 95
2019-10-02 08:00:00 5.8 27 Noroeste 40 Noroeste 0 849.8 0.1 92
2019-10-02 07:00:00 5.8 28 Noroeste 47 Norte 0 849.5 -0.5 88
2019-10-02 06:00:00 5.8 27 Noroeste 46 Noroeste 0 849.7 -0.3 90
2019-10-02 05:00:00 6.1 37 Noroeste 49 Noroeste 0 849.7 -0.5 86
2019-10-02 04:00:00 5.8 31 Noroeste 49 Noroeste 0 850 -0.2 88
2019-10-02 03:00:00 5.6 36 Noroeste 54 Noroeste 0 850 -0.1 88
2019-10-02 02:00:00 6.1 17 Noroeste 44 Noroeste 0 850.2 0.2 91
2019-10-02 01:00:00 6.3 16 Noroeste 28 Noroeste 0 850.2 0.3 91
2019-10-02 00:00:00 6.3 12 Noroeste 23 Oeste 0 850.1 0.5 86
2019-10-01 23:00:00 6.3 9 Noroeste 15 Noroeste 0 850 0.7 79
2019-10-01 22:00:00 6.9 3 Oeste 14 Noroeste 0 849.9 0.9 82
2019-10-01 21:00:00 8.6 6 Noroeste 27 Noroeste 0 849.6 0.8 77
2019-10-01 20:00:00 9.7 15 Noroeste 29 Noroeste 0 849.3 0.3 72
2019-10-01 19:00:00 10.5 14 Noroeste 32 Noroeste 0 849 0.4 70
2019-10-01 18:00:00 12.1 15 Noroeste 32 Noroeste 0 848.8 0.3 67
2019-10-01 17:00:00 13.7 10 Noroeste 29 Noroeste 0 849 0.2 61
2019-10-01 16:00:00 14.2 16 Noroeste 36 Noroeste 0 848.6 -0.5 60
2019-10-01 15:00:00 14.6 13 Noroeste 33 Oeste 0 848.5 -0.4 61
2019-10-01 14:00:00 12.9 14 Oeste 46 Noroeste 0 848.8 0.2 63
2019-10-01 13:00:00 11.8 16 Noroeste 44 Noroeste 0 849.1 1.1 70
2019-10-01 12:00:00 11.5 16 Noroeste 40 Oeste 0 848.9 1.4 78
2019-10-01 11:00:00 10.7 18 Noroeste 39 Noroeste 0 848.6 1.2 85
2019-10-01 10:00:00 10 15 Noroeste 35 Norte 0 848 0.5 91
2019-10-01 09:00:00 9.7 21 Noroeste 37 Noroeste 0 847.5 0.2 91
2019-10-01 08:00:00 9.8 9 Noroeste 30 Noroeste 0 847.4 -0.2 90
2019-10-01 07:00:00 10.1 16 Noroeste 38 Noroeste 0 847.5 -0.5 82
2019-10-01 06:00:00 8.9 6 Sudoeste 15 Este 0 847.3 -1.2 84
2019-10-01 05:00:00 8.8 5 Sur 14 Noroeste 0 847.6 -0.9 86
2019-10-01 04:00:00 9.9 6 Noroeste 20 Noroeste 0 848 -1 79
2019-10-01 03:00:00 11.8 6 Oeste 24 Sur 0 848.5 -0.8 66
2019-10-01 02:00:00 11.7 9 Sur 19 Sudeste 0 848.5 -0.9 73
2019-10-01 01:00:00 11.3 4 Sudoeste 15 Noroeste 0 849 -0.5 74
2019-10-01 00:00:00 11.1 2 Norte 9 Sur 0 849.3 -0.1 81
2019-09-30 23:00:00 12.1 3 Sur 13 Norte 0 849.4 -0.3 77
2019-09-30 22:00:00 11.6 7 Noroeste 13 Oeste 0 849.5 0.1 82
2019-09-30 21:00:00 12.9 6 Oeste 15 Noroeste 0 849.4 -0.1 78
2019-09-30 20:00:00 14.3 10 Noroeste 18 Noroeste 0 849.7 -0.3 72
2019-09-30 19:00:00 16.9 10 Noroeste 24 Noroeste 0 849.4 -0.9 62
2019-09-30 18:00:00 17.9 8 Norte 31 Sudeste 0 849.5 -1.1 56
2019-09-30 17:00:00 18.6 19 Sudeste 39 Sudeste 0 850 -1.3 54
2019-09-30 16:00:00 18.7 14 Sudeste 34 Sudeste 0 850.3 -1.2 59
2019-09-30 15:00:00 16.8 13 Sudeste 32 Sudeste 0 850.6 -1.1 65
2019-09-30 14:00:00 16.2 16 Este 33 Sudeste 0 851.3 -0.2 72
2019-09-30 13:00:00 15.9 12 Este 20 Este 0 851.5 0 78
2019-09-30 12:00:00 15 8 Sudeste 22 Sudeste 0 851.7 0.5 80
2019-09-30 11:00:00 14.4 14 Sudeste 17 Sudeste 0 851.5 0.4 84
2019-09-30 10:00:00 12.1 5 Sur 10 Sudeste 0 851.5 0.5 92
2019-09-30 09:00:00 10.1 6 Sur 9 Sudeste 0 851.2 0 93
2019-09-30 08:00:00 10 5 Sudeste 9 Sur 0 851.1 -0.3 92
2019-09-30 07:00:00 9.7 3 Sudeste 7 Sur 0 851 -0.8 90
2019-09-30 06:00:00 10.3 4 Sur 10 Sudeste 0 851.2 -0.9 92
2019-09-30 05:00:00 10.2 0 Calma 7 Sudeste 0 851.4 -0.7 91
2019-09-30 04:00:00 10.4 2 Sudeste 8 Noroeste 0 851.8 -0.6 90
2019-09-30 03:00:00 9.5 4 Oeste 24 Noroeste 0 852.1 -0.5 87
2019-09-30 02:00:00 10.7 13 Noroeste 33 Noroeste 0 852.1 -0.6 83
2019-09-30 01:00:00 11.1 15 Noroeste 37 Noroeste 0 852.4 -0.1 82
2019-09-30 00:00:00 11.7 12 Noroeste 27 Noroeste 0 852.6 0.1 84
2019-09-29 23:00:00 12.4 12 Noroeste 23 Noroeste 0 852.7 0.7 85
2019-09-29 22:00:00 11.7 6 Noroeste 32 Oeste 0 852.5 0.9 86
2019-09-29 21:00:00 11.8 15 Noroeste 29 Noroeste 0 852.5 0.9 80
2019-09-29 20:00:00 13.5 13 Noroeste 30 Noroeste 0 852 0.4 87
2019-09-29 19:00:00 14.2 6 Sudeste 12 Sudeste 0 851.6 0 90
2019-09-29 18:00:00 14.4 4 Sudeste 12 Sudeste 0 851.6 -0.1 88
2019-09-29 17:00:00 14.6 10 Norte 34 Norte 0 851.6 -0.3 88
2019-09-29 16:00:00 15.3 5 Este 24 Noroeste 0 851.6 -0.3 81
2019-09-29 15:00:00 16 11 Noroeste 31 Sudeste 0 851.7 -0.2 72
2019-09-29 14:00:00 15.8 16 Noroeste 35 Noroeste 0 851.9 0.5 72
2019-09-29 13:00:00 15.1 9 Sur 48 Noroeste 0 851.9 1 64
2019-09-29 12:00:00 15.7 7 Sudoeste 31 Noroeste 0 851.9 1.2 55
2019-09-29 11:00:00 15.9 15 Noroeste 31 Noroeste 0 851.4 1.1 52
2019-09-29 10:00:00 13.7 5 Este 19 Sudeste 0 850.9 0.4 51
2019-09-29 09:00:00 9.6 12 Sur 21 Sudeste 0 850.7 0.2 54
2019-09-29 08:00:00 8.7 12 Sur 16 Sudeste 0 850.3 -0.4 52
2019-09-29 07:00:00 8.8 11 Sudeste 14 Sudeste 0 850.5 -0.4 48
2019-09-29 06:00:00 8.6 11 Sudeste 16 Sur 0 850.5 -0.9 55
2019-09-29 05:00:00 9.6 10 Sur 19 Sudeste 0 850.7 -0.9 51
2019-09-29 04:00:00 8.4 15 Sudeste 20 Sudeste 0 850.9 -1 63
2019-09-29 03:00:00 9.5 9 Sudeste 18 Sur 0 851.4 -0.7 58
2019-09-29 02:00:00 10.4 12 Sudeste 23 Sudeste 0 851.6 -0.5 53
2019-09-29 01:00:00 10.8 12 Sudeste 19 Sudeste 0 851.9 0.1 51
2019-09-29 00:00:00 12.2 13 Sur 32 Sudeste 0 852.1 0.1 43
2019-09-28 23:00:00 13.7 17 Sudeste 37 Sudeste 0 852.1 0.2 32
2019-09-28 22:00:00 13.9 20 Sudeste 35 Sudeste 0 851.8 -0.4 29
2019-09-28 21:00:00 13.3 10 Sudeste 26 Sudeste 0 852 -0.3 38
2019-09-28 20:00:00 13.3 15 Sudeste 22 Sudeste 0 851.9 -0.4 44
2019-09-28 19:00:00 14.6 4 Sur 12 Sur 0 852.2 -0.4 36
2019-09-28 18:00:00 18.4 3 Sur 27 Sudeste 0 852.3 -0.4 23
2019-09-28 17:00:00 18.4 12 Sudeste 31 Sudeste 0 852.3 -0.9 20
2019-09-28 16:00:00 18.6 13 Sudeste 29 Sudeste 0 852.6 -0.8 21
2019-09-28 15:00:00 18.6 12 Sudeste 24 Sudeste 0 852.7 -0.8 25
2019-09-28 14:00:00 17.7 15 Sudeste 22 Sudeste 0 853.2 -0.1 27
2019-09-28 13:00:00 16.8 12 Sudeste 19 Sudeste 0 853.4 0.5 30
2019-09-28 12:00:00 14.8 11 Sudeste 17 Sudeste 0 853.5 0.9 34
2019-09-28 11:00:00 11.7 9 Sudeste 12 Sudeste 0 853.3 1.1 66
2019-09-28 10:00:00 9.6 7 Sudeste 13 Sudeste 0 852.9 0.5 60
2019-09-28 09:00:00 5.8 7 Sudeste 10 Sudeste 0 852.6 0.1 81
2019-09-28 08:00:00 5.5 4 Sur 9 Sudeste 0 852.2 -0.5 49
2019-09-28 07:00:00 5.4 4 Sur 8 Sudeste 0 852.4 -0.4 72
2019-09-28 06:00:00 5.3 4 Sudeste 8 Sudeste 0 852.5 -0.5 61
2019-09-28 05:00:00 5.9 5 Sudeste 11 Sudeste 0 852.7 -0.4 72
2019-09-28 04:00:00 6.1 7 Sudeste 11 Sur 0 852.8 -0.4 86
2019-09-28 03:00:00 6.3 7 Sudeste 10 Sur 0 853 -0.3 87
2019-09-28 02:00:00 6.5 4 Sur 11 Sur 0 853.1 -0.2 88
2019-09-28 01:00:00 5.7 0 Calma 8 Norte 0 853.2 -0.1 89
2019-09-28 00:00:00 5.4 2 Noroeste 7 Oeste 0 853.3 0.2 89
2019-09-27 23:00:00 6.7 5 Noroeste 9 Noroeste 0 853.3 0.4 89
2019-09-27 22:00:00 7.4 2 Noroeste 13 Noroeste 0 853.3 0.6 84
2019-09-27 21:00:00 8.7 7 Noroeste 18 Oeste 0 853.1 0.4 82
2019-09-27 20:00:00 9.9 13 Noroeste 34 Noroeste 0 852.9 0.2 78
2019-09-27 19:00:00 11.2 9 Noroeste 36 Noroeste 0 852.7 0 72
2019-09-27 18:00:00 12 13 Noroeste 33 Noroeste 0 852.7 0.2 73
2019-09-27 17:00:00 12.1 14 Noroeste 27 Noroeste 0 852.7 -0.1 76
2019-09-27 16:00:00 13 14 Noroeste 35 Noroeste 0 852.7 -0.1 81
2019-09-27 15:00:00 12.9 16 Norte 23 Norte 0 852.5 -0.1 89
2019-09-27 14:00:00 12.5 14 Noroeste 45 Noroeste 0 852.8 0.2 86
2019-09-27 13:00:00 12.4 10 Noroeste 32 Noroeste 0 852.8 0.6 85
2019-09-27 12:00:00 11.2 15 Noroeste 27 Noroeste 0 852.6 0.7 88
2019-09-27 11:00:00 10.7 9 Noroeste 22 Noroeste 0 852.6 0.9 90
2019-09-27 10:00:00 10.4 12 Noroeste 27 Noroeste 0 852.2 0.5 92
2019-09-27 09:00:00 10.3 9 Noroeste 24 Noroeste 0 851.9 0.1 90
2019-09-27 08:00:00 10 9 Noroeste 24 Noroeste 0 851.7 -0.3 92
2019-09-27 07:00:00 10.4 6 Noroeste 17 Noroeste 0 851.7 -0.7 86
2019-09-27 06:00:00 10.2 8 Noroeste 15 Noroeste 0 851.8 -0.8 85
2019-09-27 05:00:00 9.9 8 Noroeste 29 Noroeste 0 852 -0.9 85
2019-09-27 04:00:00 8 6 Noroeste 16 Noroeste 0 852.4 -0.6 85
2019-09-27 03:00:00 7.1 11 Noroeste 16 Noroeste 0 852.6 -0.2 71
2019-09-27 02:00:00 7.3 6 Noroeste 16 Noroeste 0 852.9 0 64
2019-09-27 01:00:00 7.7 8 Noroeste 28 Oeste 0 853 0.4 66
2019-09-27 00:00:00 11.1 6 Oeste 24 Noroeste 0 852.8 0.4 31
2019-09-26 23:00:00 9.7 8 Noroeste 15 Noroeste 0 852.9 0.5 43
2019-09-26 22:00:00 10.6 5 Norte 34 Noroeste 0 852.6 0.4 39
2019-09-26 21:00:00 13.2 12 Oeste 29 Sudoeste 0 852.4 0.1 30
2019-09-26 20:00:00 14 14 Oeste 33 Noroeste 0 852.4 0.1 30
2019-09-26 19:00:00 14.2 10 Noroeste 28 Noroeste 0 852.2 0 31
2019-09-26 18:00:00 16.6 12 Noroeste 26 Noroeste 0 852.3 0.3 33
2019-09-26 17:00:00 17.6 15 Noroeste 29 Norte 0 852.3 0.1 31
2019-09-26 16:00:00 18.6 10 Noroeste 21 Oeste 0 852.2 0 28
2019-09-26 15:00:00 18.5 10 Noroeste 23 Noroeste 0 852 -0.1 28
2019-09-26 14:00:00 18.1 12 Noroeste 22 Noroeste 0 852.2 0.2 33
2019-09-26 13:00:00 17.9 10 Noroeste 20 Noroeste 0 852.2 0.8 25
2019-09-26 12:00:00 16.2 4 Este 17 Sudeste 0 852.1 1 45
2019-09-26 11:00:00 12.8 9 Sudeste 14 Sudeste 0 852 1 49
2019-09-26 10:00:00 9.5 8 Sudeste 13 Sudeste 0 851.4 0.6 71
2019-09-26 09:00:00 6.7 6 Sudeste 13 Sudeste 0 851.1 0.2 74
2019-09-26 08:00:00 5.8 8 Sudeste 12 Sudeste 0 851 -0.2 89
2019-09-26 07:00:00 5.9 3 Sudeste 10 Sur 0 850.8 -0.6 86
2019-09-26 06:00:00 6 3 Sudeste 10 Sur 0 850.9 -0.5 88
2019-09-26 05:00:00 5.8 8 Sudeste 12 Sudeste 0 851.2 -0.3 91
2019-09-26 04:00:00 6.1 6 Sur 11 Sudeste 0 851.4 -0.4 92
2019-09-26 03:00:00 6.7 6 Sur 11 Sudeste 0 851.4 -0.4 92
2019-09-26 02:00:00 7.2 7 Sur 10 Sur 0 851.5 -0.2 91
2019-09-26 01:00:00 7.5 6 Sur 12 Sudeste 0 851.8 0.2 91
2019-09-26 00:00:00 7.9 9 Sudeste 14 Sur 0 851.8 0.6 90
2019-09-25 23:00:00 8.3 5 Sudeste 11 Sur 0 851.7 0.6 89
2019-09-25 22:00:00 8.6 6 Sur 12 Sur 0 851.6 0.5 87
2019-09-25 21:00:00 9.4 6 Sudeste 15 Sudoeste 0 851.2 0 85
2019-09-25 20:00:00 10.7 13 Sudoeste 21 Oeste 0 851.1 0.1 81
2019-09-25 19:00:00 12.1 4 Sudoeste 16 Sudoeste 0 851.1 -0.2 74
2019-09-25 18:00:00 13.5 5 Sudoeste 15 Noroeste 0 851.2 -0.2 72
2019-09-25 17:00:00 13.3 2 Sudoeste 18 Noroeste 0 851 -0.7 73
2019-09-25 16:00:00 13.2 5 Noroeste 19 Noroeste 0 851.3 -0.3 74
2019-09-25 15:00:00 12.5 13 Norte 23 Noroeste 0 851.4 -0.3 74
2019-09-25 14:00:00 12.7 5 Noroeste 23 Noroeste 0 851.7 0.2 71
2019-09-25 13:00:00 11.7 13 Norte 22 Norte 0 851.6 0.6 75
2019-09-25 12:00:00 9.7 11 Noroeste 18 Noroeste 0 851.7 0.9 84
2019-09-25 11:00:00 8.5 7 Sudeste 22 Sur 0 851.5 1.1 85
2019-09-25 10:00:00 7.5 3 Este 18 Noroeste 0 851 0.8 87
2019-09-25 09:00:00 6.5 13 Noroeste 20 Noroeste 0 850.8 0.4 91
2019-09-25 08:00:00 6 9 Noroeste 20 Noroeste 0 850.4 0.2 94
2019-09-25 07:00:00 6.2 5 Noroeste 17 Noroeste 0 850.2 -0.1 92
2019-09-25 06:00:00 6.4 13 Noroeste 24 Noroeste 0 850.4 0 92
2019-09-25 05:00:00 6.4 14 Norte 27 Noroeste 0 850.2 -0.2 93
2019-09-25 04:00:00 6.6 13 Noroeste 31 Noroeste 0 850.3 -0.5 90
2019-09-25 03:00:00 6.7 13 Noroeste 27 Noroeste 0 850.4 -0.3 88
2019-09-25 02:00:00 6.7 11 Noroeste 23 Noroeste 0 850.4 -0.2 83
2019-09-25 01:00:00 6.7 11 Noroeste 33 Noroeste 0 850.8 0.1 86
2019-09-25 00:00:00 7.1 15 Noroeste 31 Noroeste 0 850.7 0.4 81
2019-09-24 23:00:00 7.2 13 Noroeste 31 Noroeste 0 850.6 0.7 78
2019-09-24 22:00:00 7.4 16 Noroeste 31 Noroeste 0 850.7 1 76
2019-09-24 21:00:00 8.5 15 Noroeste 30 Norte 0 850.3 0.9 79
2019-09-24 20:00:00 9.8 13 Noroeste 30 Noroeste 0 849.9 0.1 79
2019-09-24 19:00:00 11.2 14 Noroeste 38 Noroeste 0 849.7 0 76
2019-09-24 18:00:00 11.8 22 Norte 48 Noroeste 0 849.4 -0.1 70
2019-09-24 17:00:00 12.4 15 Norte 42 Noroeste 0 849.8 0.1 70
2019-09-24 16:00:00 13.3 26 Norte 48 Noroeste 0 849.7 0.1 62
2019-09-24 15:00:00 13.1 21 Norte 50 Norte 0 849.5 0 75
2019-09-24 14:00:00 13.5 22 Norte 46 Noroeste 0 849.7 0.3 78
2019-09-24 13:00:00 13 17 Noroeste 48 Noroeste 0 849.6 0.8 76
2019-09-24 12:00:00 13.2 19 Norte 55 Noroeste 0 849.5 0.9 80
2019-09-24 11:00:00 12.1 17 Noroeste 45 Noroeste 0.2 849.4 0.7 84
2019-09-24 10:00:00 11.9 18 Norte 39 Noroeste 0.2 848.8 0.4 87
2019-09-24 09:00:00 11.8 9 Norte 47 Noroeste 0.2 848.6 -0.1 88
2019-09-24 08:00:00 11.6 22 Noroeste 44 Noroeste 1 848.7 0.3 89
2019-09-24 07:00:00 11.6 23 Noroeste 47 Noroeste 1 848.4 -0.7 90
2019-09-24 06:00:00 10.5 10 Sudeste 32 Sudeste 1.4 848.7 -1 92
2019-09-24 05:00:00 11.3 14 Sudeste 46 Sudeste 0.4 848.4 -1.1 89
2019-09-24 04:00:00 11.5 15 Sudeste 50 Sudeste 0 849.1 -0.6 87
2019-09-24 03:00:00 11.8 15 Este 42 Sudeste 0 849.7 -0.9 85
2019-09-24 02:00:00 11.3 19 Sudeste 54 Sudeste 0 849.5 -1.2 88
2019-09-24 01:00:00 11.4 27 Sudeste 59 Sudeste 0 849.7 -1 86
2019-09-24 00:00:00 11.3 19 Sudeste 42 Sudeste 0 850.6 -0.3 89
2019-09-23 23:00:00 11.3 26 Sudeste 44 Sudeste 0 850.7 -0.4 89
2019-09-23 22:00:00 10.5 27 Sudeste 55 Sudeste 0.2 850.7 -0.6 94
2019-09-23 21:00:00 9.6 19 Sudeste 31 Sudeste 0 850.9 -0.4 94
2019-09-23 20:00:00 9.4 18 Sudeste 29 Sudeste 0 851.1 -0.2 93
2019-09-23 19:00:00 9.1 17 Sudeste 24 Sudeste 0.2 851.3 0.2 92
2019-09-23 18:00:00 9.5 15 Sudeste 27 Sudeste 0 851.3 0.3 90
2019-09-23 17:00:00 10.9 18 Sudeste 30 Sudeste 0 851.3 0.3 79
2019-09-23 16:00:00 10.8 22 Sudeste 32 Sudeste 0 851.1 0.1 75
2019-09-23 15:00:00 11.2 23 Sudeste 33 Sudeste 0 851 0 73
2019-09-23 14:00:00 11.8 21 Sudeste 34 Sudeste 0 851 -0.1 71
2019-09-23 13:00:00 10.5 18 Sudeste 28 Sudeste 0 851 0 78
2019-09-23 12:00:00 9.1 17 Sudeste 27 Sudeste 0 851 0.8 82
2019-09-23 11:00:00 7.8 18 Sudeste 27 Sudeste 0 851.1 1.2 87
2019-09-23 10:00:00 7.3 17 Sudeste 23 Sudeste 0 851 0.9 86
2019-09-23 09:00:00 6.3 12 Sudeste 18 Sudeste 0 850.2 0.2 92
2019-09-23 08:00:00 6.2 13 Sudeste 18 Sudeste 0 849.9 0 90
2019-09-23 07:00:00 6.2 8 Sudeste 22 Este 0 850.1 0.3 89
2019-09-23 06:00:00 5.6 12 Sudeste 20 Sur 0 850 0.1 92
2019-09-23 05:00:00 5.3 6 Sudeste 19 Sudeste 0 849.9 0.4 92
2019-09-23 04:00:00 5.7 15 Sudeste 32 Sudeste 0 849.8 0.1 92
2019-09-23 03:00:00 5.7 12 Sudeste 20 Sudeste 0 849.9 0.2 91
2019-09-23 02:00:00 5.6 12 Sudeste 25 Sudeste 0 849.5 0 91
2019-09-23 01:00:00 5.7 8 Sudeste 18 Sudeste 0 849.7 0.4 89
2019-09-23 00:00:00 6.2 7 Sudeste 16 Sudeste 0 849.7 0.8 88
2019-09-22 23:00:00 7.2 4 Sudoeste 15 Noroeste 0 849.5 1.1 82
2019-09-22 22:00:00 8 8 Oeste 21 Oeste 0 849.3 1 77
2019-09-22 21:00:00 8 7 Oeste 19 Noroeste 0 848.9 0.9 77
2019-09-22 20:00:00 9.2 8 Noroeste 22 Noroeste 0 848.4 0.6 77
2019-09-22 19:00:00 10 7 Norte 39 Noroeste 0 848.3 0.8 76
2019-09-22 18:00:00 10 16 Noroeste 44 Noroeste 0 848 0.8 75
2019-09-22 17:00:00 9.8 10 Noroeste 33 Noroeste 0 847.8 0.6 79
2019-09-22 16:00:00 10.1 7 Sudeste 39 Noroeste 0 847.5 0.6 72
2019-09-22 15:00:00 10.1 13 Norte 28 Norte 0 847.2 0.7 74
2019-09-22 14:00:00 9.2 17 Noroeste 33 Noroeste 0 847.2 1.1 73
2019-09-22 13:00:00 8.9 6 Norte 18 Oeste 0 846.9 1.4 77
2019-09-22 12:00:00 8.9 9 Sudeste 23 Este 0 846.5 1.9 74
2019-09-22 11:00:00 7.3 7 Sudeste 18 Sudeste 0 846.1 2.2 80
2019-09-22 10:00:00 6.8 11 Sudeste 35 Sudeste 0 845.5 2.1 81
2019-09-22 09:00:00 5.7 15 Sudeste 48 Sudeste 0 844.6 1.6 79
2019-09-22 08:00:00 6.2 14 Sur 36 Sudeste 0 843.9 1.3 80
2019-09-22 07:00:00 6.7 9 Norte 45 Oeste 0 843.4 0.9 76
2019-09-22 06:00:00 7.5 14 Noroeste 33 Noroeste 0 843 0.5 77
2019-09-22 05:00:00 7.6 5 Nordeste 43 Noroeste 0 842.6 0.4 82
2019-09-22 04:00:00 7.5 13 Norte 38 Norte 0 842.5 0.4 81
2019-09-22 03:00:00 7.4 8 Nordeste 42 Noroeste 0 842.5 0.5 82
2019-09-22 02:00:00 7.4 19 Sudeste 51 Sudeste 0 842.2 0.6 84
2019-09-22 01:00:00 6.7 14 Sudeste 49 Sudeste 0 842.1 1.6 89
2019-09-22 00:00:00 7.1 24 Sudeste 46 Sur 0.2 842 1.5 82
2019-09-21 23:00:00 10 18 Sudeste 50 Sudeste 2.8 841.6 0.7 89
2019-09-21 22:00:00 11.8 17 Sudeste 48 Sudeste 2 840.5 -0.3 93
2019-09-21 21:00:00 11.8 16 Sudeste 42 Sur 2.2 840.5 -0.5 94
2019-09-21 20:00:00 12 19 Sudeste 44 Sudeste 3.4 840.9 -0.7 92
2019-09-21 19:00:00 12.1 17 Sudeste 35 Sudeste 1 840.8 -1.1 93
2019-09-21 18:00:00 12.1 14 Sudeste 28 Sudeste 0.6 841 -1.4 94
2019-09-21 17:00:00 12.2 19 Sudeste 32 Sudeste 0.6 841.6 -1.3 92
2019-09-21 16:00:00 12.6 18 Sudeste 37 Sudeste 0 841.9 -0.9 91
2019-09-21 15:00:00 11.6 22 Sudeste 38 Sudeste 0 842.4 -0.5 89
2019-09-21 14:00:00 11.5 13 Sur 51 Sudeste 0 842.9 -0.4 88
2019-09-21 13:00:00 12 17 Sudeste 39 Sudeste 0 842.8 -0.2 84
2019-09-21 12:00:00 11.1 20 Sudeste 38 Sudeste 0 842.9 0 85
2019-09-21 11:00:00 10.3 16 Sudeste 32 Sudeste 0 843.3 0.5 90
2019-09-21 10:00:00 9.9 16 Sudeste 26 Sudeste 0 843 0.2 91
2019-09-21 09:00:00 10.6 14 Sudeste 27 Sudeste 0 842.9 -0.4 84
2019-09-21 08:00:00 10.6 18 Sudeste 36 Sur 0 842.8 -0.5 83
2019-09-21 07:00:00 10.6 17 Sudeste 48 Sudeste 0 842.8 -1.4 85
2019-09-21 06:00:00 11.2 14 Sudeste 39 Sudeste 0 843.3 -1.2 80
2019-09-21 05:00:00 11 15 Sudeste 33 Sudeste 0 843.3 -1.3 82
2019-09-21 04:00:00 11.6 15 Sudeste 37 Sudeste 0 844.2 -0.7 81
2019-09-21 03:00:00 11.1 14 Sudeste 28 Sudeste 0 844.5 -0.7 85
2019-09-21 02:00:00 9.8 5 Sudeste 15 Sur 0 844.6 -1.2 89
2019-09-21 01:00:00 9.8 11 Sudeste 18 Sudeste 0 844.9 -1.4 89
2019-09-21 00:00:00 10.9 7 Sudeste 15 Sur 0 845.2 -1 85
2019-09-20 23:00:00 13 9 Sur 18 Sudeste 0 845.8 -0.4 75
2019-09-20 22:00:00 12.9 5 Sudeste 14 Sur 0 846.3 0 76
2019-09-20 21:00:00 12.5 0 Calma 10 Sudeste 0 846.2 0.1 77
2019-09-20 20:00:00 13.4 8 Sur 32 Este 2.2 846.2 -0.2 74
2019-09-20 19:00:00 16.2 9 Sudeste 27 Sudeste 0 846.3 -0.5 67
2019-09-20 18:00:00 18.2 16 Sudeste 37 Sudeste 0 846.1 -1.4 52
2019-09-20 17:00:00 19.5 19 Sudeste 34 Sudeste 0 846.4 -1.5 52
2019-09-20 16:00:00 19.2 23 Sudeste 43 Sudeste 0 846.8 -1.4 49
2019-09-20 15:00:00 19.6 16 Sudeste 36 Sudeste 0 847.5 -1.2 49
2019-09-20 14:00:00 18.2 17 Sudeste 34 Sudeste 0 847.9 -0.9 63
2019-09-20 13:00:00 18.5 22 Sudeste 37 Sudeste 0 848.2 -0.8 62
2019-09-20 12:00:00 15.7 21 Sudeste 32 Sudeste 0 848.7 -0.2 68
2019-09-20 11:00:00 15.9 16 Sudeste 27 Sudeste 0 848.8 0 64
2019-09-20 10:00:00 15 12 Sur 19 Sudeste 0 849 0.1 71
2019-09-20 09:00:00 11.9 8 Sudeste 15 Sur 0 848.9 -0.3 82
2019-09-20 08:00:00 11.4 8 Sudeste 15 Sur 0 848.8 -0.7 81
2019-09-20 07:00:00 11.7 10 Sur 16 Sur 0 848.9 -1.1 81
2019-09-20 06:00:00 11.3 8 Sudeste 16 Sur 0 849.2 -1.2 81
2019-09-20 05:00:00 11.5 9 Sur 17 Sur 0 849.5 -0.9 82
2019-09-20 04:00:00 12 12 Sur 21 Sur 0 850 -0.6 80
2019-09-20 03:00:00 11.4 12 Sudeste 16 Sur 0 850.4 -0.6 83
2019-09-20 02:00:00 11.6 8 Sur 14 Sur 0 850.4 -0.7 82
2019-09-20 01:00:00 11.7 6 Sudeste 10 Sur 0 850.6 -0.3 86
2019-09-20 00:00:00 12.3 5 Sudeste 9 Sur 0 851 0.3 83
2019-09-19 23:00:00 12.2 5 Sudeste 8 Sur 0 851.1 0.6 84
2019-09-19 22:00:00 12.4 0 Calma 9 Sur 0 850.9 0.3 82
2019-09-19 21:00:00 13 2 Sur 9 Sudoeste 0 850.7 0 79
2019-09-19 20:00:00 14.4 5 Sudeste 8 Sudeste 0 850.5 -0.6 77
2019-09-19 19:00:00 14.8 4 Sudeste 16 Sur 0 850.6 -0.5 78
2019-09-19 18:00:00 16.1 5 Sudeste 8 Sudeste 0 850.7 -0.7 74
2019-09-19 17:00:00 15.9 5 Norte 18 Noroeste 0 851.1 -0.6 77
2019-09-19 16:00:00 17.2 13 Noroeste 24 Noroeste 0 851.1 -0.9 64
2019-09-19 15:00:00 18.6 16 Noroeste 24 Noroeste 0 851.4 -0.6 66
2019-09-19 14:00:00 17.8 16 Noroeste 22 Noroeste 0 851.7 -0.4 76
2019-09-19 13:00:00 18.3 13 Noroeste 19 Noroeste 0 852 0 64
2019-09-19 12:00:00 17.9 10 Noroeste 17 Noroeste 0 852 0.2 65
2019-09-19 11:00:00 16.1 4 Sudeste 10 Sudeste 0 852.1 0.5 76
2019-09-19 10:00:00 13.6 6 Sudeste -- -- 0 852 0.4 82
2019-09-19 09:00:00 11.7 5 Sudeste 10 Sur 0 851.8 0.3 88
2019-09-19 08:00:00 10.9 5 Sur 9 Sur 0 851.6 -0.2 88
2019-09-19 07:00:00 10.6 6 Sudeste 9 Sudeste 0 851.6 -0.4 88
2019-09-19 06:00:00 11.3 6 Sudeste 10 Sur 0 851.5 -0.8 86
2019-09-19 05:00:00 11.7 7 Sur 10 Sur 0 851.8 -0.6 83
2019-09-19 04:00:00 12 5 Sudeste 10 Sudeste 0 852 -0.5 81
2019-09-19 03:00:00 11.7 4 Sudeste 8 Sudeste 0 852.3 -0.4 84
2019-09-19 02:00:00 11.6 4 Sudeste 6 Sudeste 0 852.4 -0.2 82
2019-09-19 01:00:00 11.6 5 Sudeste 8 Sudeste 0 852.5 0 84
2019-09-19 00:00:00 11.5 0 Calma 5 Norte 0 852.7 0.7 84
2019-09-18 23:00:00 11.8 0 Calma 9 Noroeste 0 852.6 0.7 83
2019-09-18 22:00:00 13 6 Noroeste 9 Norte 0 852.5 0.9 92
2019-09-18 21:00:00 14.5 4 Noroeste -- -- 0 852 0.5 93
2019-09-18 20:00:00 15.3 7 Noroeste 15 Noroeste 0 851.9 0.3 88
2019-09-18 19:00:00 15.5 10 Noroeste 21 Noroeste 0 851.6 -0.1 85
2019-09-18 18:00:00 17.7 15 Noroeste 21 Noroeste 0 851.5 -0.4 78
2019-09-18 17:00:00 16.8 13 Noroeste 20 Noroeste 0 851.6 -0.3 78
2019-09-18 16:00:00 17.7 -- -- -- -- 0 851.7 -0.3 69
2019-09-18 15:00:00 17.5 11 Noroeste 16 Noroeste 0 851.9 0.2 67
2019-09-18 14:00:00 17.9 6 Sudeste 17 Sudeste 0 851.9 0.2 53
2019-09-18 13:00:00 17.8 12 Sudeste 18 Sudeste 0 852 0.8 57
2019-09-18 12:00:00 15.9 10 Sudeste 15 Sudeste 0 851.7 1 64
2019-09-18 11:00:00 12.7 9 Sudeste 12 Sudeste 0 851.7 1 78
2019-09-18 10:00:00 11.8 3 Este 9 Sudeste 0 851.2 0.8 82
2019-09-18 09:00:00 11.4 5 Sudeste 13 Sur 0 850.7 0.6 77
2019-09-18 08:00:00 10.5 8 Sudeste 16 Sur 0 850.7 0.6 81
2019-09-18 07:00:00 10.2 11 Sudeste 15 Sur 0 850.4 0.2 82
2019-09-18 06:00:00 10.2 9 Sudeste 19 Sudeste 0 850.1 -1.2 87
2019-09-18 05:00:00 11.1 13 Sudeste 22 Sudeste 0 850.1 -1.2 82
2019-09-18 04:00:00 11.7 9 Sur 24 Sur 0 850.2 -1.1 75
2019-09-18 03:00:00 11 18 Sur 41 Sudeste 0 851.3 -0.5 83
2019-09-18 02:00:00 9.7 14 Sudeste 21 Sudeste 0 851.3 -0.6 92
2019-09-18 01:00:00 10.7 4 Sur 18 Sur 0 851.3 -0.3 82
2019-09-18 00:00:00 10 8 Sudeste 12 Sur 0 851.8 0.7 86
2019-09-17 23:00:00 9.1 3 Este 15 Noroeste 0 851.9 1 84
2019-09-17 22:00:00 10 5 Noroeste 10 Sur 0 851.6 -0.2 84
2019-09-17 21:00:00 10.8 2 Noroeste 18 Sudeste 0 851.1 -0.8 87